sensor_id;sensor_type;location;lat;lon;timestamp;P1;durP1;ratioP1;P2;durP2;ratioP2
65238;SDS011;51827;51.186;6.926;2023-02-19T00:00:39;1.45;;;1.02;;
65238;SDS011;51827;51.186;6.926;2023-02-19T00:01:41;1.77;;;1.00;;
65238;SDS011;51827;51.186;6.926;2023-02-19T00:02:42;2.03;;;1.08;;
65238;SDS011;51827;51.186;6.926;2023-02-19T00:03:46;1.63;;;0.90;;
65238;SDS011;51827;51.186;6.926;2023-02-19T00:04:48;1.02;;;0.82;;
65238;SDS011;51827;51.186;6.926;2023-02-19T00:05:48;3.33;;;1.10;;
65238;SDS011;51827;51.186;6.926;2023-02-19T00:06:48;1.50;;;1.00;;
65238;SDS011;51827;51.186;6.926;2023-02-19T00:07:48;1.00;;;0.90;;
65238;SDS011;51827;51.186;6.926;2023-02-19T00:08:49;1.47;;;0.90;;
65238;SDS011;51827;51.186;6.926;2023-02-19T00:09:49;3.00;;;1.00;;
65238;SDS011;51827;51.186;6.926;2023-02-19T00:10:50;1.67;;;0.90;;
65238;SDS011;51827;51.186;6.926;2023-02-19T00:11:50;1.30;;;1.10;;
65238;SDS011;51827;51.186;6.926;2023-02-19T00:12:50;1.03;;;0.93;;
65238;SDS011;51827;51.186;6.926;2023-02-19T00:13:51;1.10;;;0.97;;
65238;SDS011;51827;51.186;6.926;2023-02-19T00:14:53;1.42;;;0.90;;
65238;SDS011;51827;51.186;6.926;2023-02-19T00:15:53;1.43;;;1.00;;
65238;SDS011;51827;51.186;6.926;2023-02-19T00:16:53;1.37;;;0.90;;
65238;SDS011;51827;51.186;6.926;2023-02-19T00:17:54;1.40;;;0.90;;
65238;SDS011;51827;51.186;6.926;2023-02-19T00:18:55;1.67;;;0.90;;
65238;SDS011;51827;51.186;6.926;2023-02-19T00:19:56;1.63;;;1.13;;
65238;SDS011;51827;51.186;6.926;2023-02-19T00:20:57;2.27;;;1.00;;
65238;SDS011;51827;51.186;6.926;2023-02-19T00:21:57;1.13;;;0.90;;
65238;SDS011;51827;51.186;6.926;2023-02-19T00:22:57;1.10;;;0.90;;
65238;SDS011;51827;51.186;6.926;2023-02-19T00:23:58;2.40;;;0.90;;
65238;SDS011;51827;51.186;6.926;2023-02-19T00:25:01;1.50;;;0.98;;
65238;SDS011;51827;51.186;6.926;2023-02-19T00:26:08;1.47;;;0.80;;
65238;SDS011;51827;51.186;6.926;2023-02-19T00:27:09;1.00;;;0.90;;
65238;SDS011;51827;51.186;6.926;2023-02-19T00:28:09;1.87;;;0.90;;
65238;SDS011;51827;51.186;6.926;2023-02-19T00:29:17;1.33;;;0.90;;
65238;SDS011;51827;51.186;6.926;2023-02-19T00:30:19;0.88;;;0.70;;
65238;SDS011;51827;51.186;6.926;2023-02-19T00:32:21;0.88;;;0.70;;
65238;SDS011;51827;51.186;6.926;2023-02-19T00:33:21;2.00;;;1.00;;
65238;SDS011;51827;51.186;6.926;2023-02-19T00:34:21;1.87;;;0.90;;
65238;SDS011;51827;51.186;6.926;2023-02-19T00:35:21;1.50;;;0.90;;
65238;SDS011;51827;51.186;6.926;2023-02-19T00:36:22;2.07;;;0.97;;
65238;SDS011;51827;51.186;6.926;2023-02-19T00:37:23;1.75;;;1.10;;
65238;SDS011;51827;51.186;6.926;2023-02-19T00:38:23;4.17;;;0.80;;
65238;SDS011;51827;51.186;6.926;2023-02-19T00:39:23;1.47;;;0.90;;
65238;SDS011;51827;51.186;6.926;2023-02-19T00:40:23;1.23;;;0.90;;
65238;SDS011;51827;51.186;6.926;2023-02-19T00:41:24;1.47;;;0.83;;
65238;SDS011;51827;51.186;6.926;2023-02-19T00:42:24;1.40;;;1.00;;
65238;SDS011;51827;51.186;6.926;2023-02-19T00:43:25;1.03;;;0.80;;
65238;SDS011;51827;51.186;6.926;2023-02-19T00:44:25;1.52;;;0.80;;
65238;SDS011;51827;51.186;6.926;2023-02-19T00:45:26;1.37;;;0.90;;
65238;SDS011;51827;51.186;6.926;2023-02-19T00:46:27;1.73;;;0.90;;
65238;SDS011;51827;51.186;6.926;2023-02-19T00:47:27;1.05;;;0.82;;
65238;SDS011;51827;51.186;6.926;2023-02-19T00:48:28;1.03;;;0.90;;
65238;SDS011;51827;51.186;6.926;2023-02-19T00:49:28;1.27;;;1.00;;
65238;SDS011;51827;51.186;6.926;2023-02-19T00:50:28;1.40;;;0.80;;
65238;SDS011;51827;51.186;6.926;2023-02-19T00:51:30;1.03;;;0.83;;
65238;SDS011;51827;51.186;6.926;2023-02-19T00:52:32;1.60;;;1.00;;
65238;SDS011;51827;51.186;6.926;2023-02-19T00:53:32;1.40;;;0.90;;
65238;SDS011;51827;51.186;6.926;2023-02-19T00:54:33;1.13;;;0.90;;
65238;SDS011;51827;51.186;6.926;2023-02-19T00:55:33;0.83;;;0.83;;
65238;SDS011;51827;51.186;6.926;2023-02-19T00:56:33;1.00;;;0.90;;
65238;SDS011;51827;51.186;6.926;2023-02-19T00:57:33;1.93;;;0.93;;
65238;SDS011;51827;51.186;6.926;2023-02-19T00:58:33;1.87;;;0.90;;
65238;SDS011;51827;51.186;6.926;2023-02-19T00:59:34;2.50;;;1.00;;
65238;SDS011;51827;51.186;6.926;2023-02-19T01:00:34;1.27;;;0.80;;
65238;SDS011;51827;51.186;6.926;2023-02-19T01:01:34;1.10;;;1.00;;
65238;SDS011;51827;51.186;6.926;2023-02-19T01:02:34;1.43;;;0.90;;
65238;SDS011;51827;51.186;6.926;2023-02-19T01:03:35;0.77;;;0.77;;
65238;SDS011;51827;51.186;6.926;2023-02-19T01:04:36;1.25;;;0.80;;
65238;SDS011;51827;51.186;6.926;2023-02-19T01:05:37;2.55;;;0.80;;
65238;SDS011;51827;51.186;6.926;2023-02-19T01:06:37;0.80;;;0.70;;
65238;SDS011;51827;51.186;6.926;2023-02-19T01:07:37;1.57;;;0.83;;
65238;SDS011;51827;51.186;6.926;2023-02-19T01:08:38;2.05;;;1.00;;
65238;SDS011;51827;51.186;6.926;2023-02-19T01:09:38;2.30;;;0.90;;
65238;SDS011;51827;51.186;6.926;2023-02-19T01:10:39;0.93;;;0.80;;
65238;SDS011;51827;51.186;6.926;2023-02-19T01:11:39;2.17;;;0.90;;
65238;SDS011;51827;51.186;6.926;2023-02-19T01:12:39;1.27;;;0.90;;
65238;SDS011;51827;51.186;6.926;2023-02-19T01:13:39;0.83;;;0.80;;
65238;SDS011;51827;51.186;6.926;2023-02-19T01:14:40;1.23;;;0.88;;
65238;SDS011;51827;51.186;6.926;2023-02-19T01:15:40;0.93;;;0.70;;
65238;SDS011;51827;51.186;6.926;2023-02-19T01:16:40;0.93;;;0.77;;
65238;SDS011;51827;51.186;6.926;2023-02-19T01:17:40;2.23;;;1.00;;
65238;SDS011;51827;51.186;6.926;2023-02-19T01:18:41;1.30;;;1.17;;
65238;SDS011;51827;51.186;6.926;2023-02-19T01:19:42;1.45;;;0.90;;
65238;SDS011;51827;51.186;6.926;2023-02-19T01:20:42;1.20;;;0.80;;
65238;SDS011;51827;51.186;6.926;2023-02-19T01:22:43;1.23;;;0.90;;
65238;SDS011;51827;51.186;6.926;2023-02-19T01:23:44;1.40;;;1.00;;
65238;SDS011;51827;51.186;6.926;2023-02-19T01:24:44;1.15;;;0.90;;
65238;SDS011;51827;51.186;6.926;2023-02-19T01:25:44;1.50;;;0.90;;
65238;SDS011;51827;51.186;6.926;2023-02-19T01:26:45;1.70;;;0.80;;
65238;SDS011;51827;51.186;6.926;2023-02-19T01:27:45;0.93;;;0.80;;
65238;SDS011;51827;51.186;6.926;2023-02-19T01:28:45;0.90;;;0.80;;
65238;SDS011;51827;51.186;6.926;2023-02-19T01:29:46;1.25;;;0.80;;
65238;SDS011;51827;51.186;6.926;2023-02-19T01:30:46;1.53;;;1.00;;
65238;SDS011;51827;51.186;6.926;2023-02-19T01:31:46;1.50;;;1.00;;
65238;SDS011;51827;51.186;6.926;2023-02-19T01:32:46;1.87;;;1.00;;
65238;SDS011;51827;51.186;6.926;2023-02-19T01:33:48;0.93;;;0.83;;
65238;SDS011;51827;51.186;6.926;2023-02-19T01:34:50;0.70;;;0.70;;
65238;SDS011;51827;51.186;6.926;2023-02-19T01:35:50;1.37;;;0.90;;
65238;SDS011;51827;51.186;6.926;2023-02-19T01:36:50;1.90;;;1.20;;
65238;SDS011;51827;51.186;6.926;2023-02-19T01:37:51;2.57;;;0.90;;
65238;SDS011;51827;51.186;6.926;2023-02-19T01:38:51;0.77;;;0.70;;
65238;SDS011;51827;51.186;6.926;2023-02-19T01:39:52;1.42;;;0.90;;
65238;SDS011;51827;51.186;6.926;2023-02-19T01:40:56;1.42;;;0.90;;
65238;SDS011;51827;51.186;6.926;2023-02-19T01:41:57;1.38;;;1.00;;
65238;SDS011;51827;51.186;6.926;2023-02-19T01:42:57;0.83;;;0.80;;
65238;SDS011;51827;51.186;6.926;2023-02-19T01:45:14;1.05;;;0.90;;
65238;SDS011;51827;51.186;6.926;2023-02-19T01:46:16;1.10;;;0.90;;
65238;SDS011;51827;51.186;6.926;2023-02-19T01:47:17;0.80;;;0.80;;
65238;SDS011;51827;51.186;6.926;2023-02-19T01:49:29;1.02;;;0.80;;
65238;SDS011;51827;51.186;6.926;2023-02-19T01:50:44;1.30;;;0.95;;
65238;SDS011;51827;51.186;6.926;2023-02-19T01:51:51;1.30;;;0.90;;
65238;SDS011;51827;51.186;6.926;2023-02-19T01:52:53;1.33;;;1.00;;
65238;SDS011;51827;51.186;6.926;2023-02-19T01:53:54;1.95;;;0.90;;
65238;SDS011;51827;51.186;6.926;2023-02-19T01:54:57;1.90;;;0.90;;
65238;SDS011;51827;51.186;6.926;2023-02-19T01:56:00;1.08;;;0.88;;
65238;SDS011;51827;51.186;6.926;2023-02-19T01:57:03;1.20;;;0.80;;
65238;SDS011;51827;51.186;6.926;2023-02-19T01:58:07;1.67;;;1.08;;
65238;SDS011;51827;51.186;6.926;2023-02-19T02:00:09;1.50;;;1.00;;
65238;SDS011;51827;51.186;6.926;2023-02-19T02:01:11;1.05;;;0.70;;
65238;SDS011;51827;51.186;6.926;2023-02-19T02:02:11;0.82;;;0.70;;
65238;SDS011;51827;51.186;6.926;2023-02-19T02:03:12;0.97;;;0.80;;
65238;SDS011;51827;51.186;6.926;2023-02-19T02:04:12;1.00;;;0.80;;
65238;SDS011;51827;51.186;6.926;2023-02-19T02:05:17;1.13;;;0.88;;
65238;SDS011;51827;51.186;6.926;2023-02-19T02:06:23;2.50;;;1.00;;
65238;SDS011;51827;51.186;6.926;2023-02-19T02:07:26;1.05;;;0.80;;
65238;SDS011;51827;51.186;6.926;2023-02-19T02:08:27;1.53;;;1.10;;
65238;SDS011;51827;51.186;6.926;2023-02-19T02:09:28;0.82;;;0.80;;
65238;SDS011;51827;51.186;6.926;2023-02-19T02:10:29;1.42;;;0.93;;
65238;SDS011;51827;51.186;6.926;2023-02-19T02:11:30;1.60;;;0.90;;
65238;SDS011;51827;51.186;6.926;2023-02-19T02:12:30;1.23;;;0.90;;
65238;SDS011;51827;51.186;6.926;2023-02-19T02:13:31;1.77;;;0.90;;
65238;SDS011;51827;51.186;6.926;2023-02-19T02:14:35;1.58;;;0.80;;
65238;SDS011;51827;51.186;6.926;2023-02-19T02:16:01;0.93;;;0.80;;
65238;SDS011;51827;51.186;6.926;2023-02-19T02:21:28;1.00;;;0.90;;
65238;SDS011;51827;51.186;6.926;2023-02-19T02:22:42;1.15;;;0.90;;
65238;SDS011;51827;51.186;6.926;2023-02-19T02:27:37;1.42;;;1.10;;
65238;SDS011;51827;51.186;6.926;2023-02-19T02:31:30;2.33;;;0.90;;
65238;SDS011;51827;51.186;6.926;2023-02-19T02:32:37;1.50;;;1.10;;
65238;SDS011;51827;51.186;6.926;2023-02-19T02:33:43;1.50;;;1.00;;
65238;SDS011;51827;51.186;6.926;2023-02-19T02:34:52;1.65;;;0.93;;
65238;SDS011;51827;51.186;6.926;2023-02-19T02:35:58;1.52;;;0.93;;
65238;SDS011;51827;51.186;6.926;2023-02-19T02:36:58;0.77;;;0.77;;
65238;SDS011;51827;51.186;6.926;2023-02-19T02:38:01;1.08;;;0.90;;
65238;SDS011;51827;51.186;6.926;2023-02-19T02:39:05;0.85;;;0.80;;
65238;SDS011;51827;51.186;6.926;2023-02-19T02:40:10;1.42;;;0.88;;
65238;SDS011;51827;51.186;6.926;2023-02-19T02:41:11;2.40;;;1.05;;
65238;SDS011;51827;51.186;6.926;2023-02-19T02:42:13;1.35;;;1.00;;
65238;SDS011;51827;51.186;6.926;2023-02-19T02:43:13;2.57;;;0.90;;
65238;SDS011;51827;51.186;6.926;2023-02-19T02:44:14;1.25;;;0.90;;
65238;SDS011;51827;51.186;6.926;2023-02-19T02:45:21;1.50;;;0.93;;
65238;SDS011;51827;51.186;6.926;2023-02-19T02:46:27;3.28;;;1.00;;
65238;SDS011;51827;51.186;6.926;2023-02-19T02:47:34;1.08;;;0.90;;
65238;SDS011;51827;51.186;6.926;2023-02-19T02:48:40;1.25;;;1.00;;
65238;SDS011;51827;51.186;6.926;2023-02-19T02:49:44;1.80;;;1.05;;
65238;SDS011;51827;51.186;6.926;2023-02-19T02:51:49;3.65;;;1.05;;
65238;SDS011;51827;51.186;6.926;2023-02-19T02:52:54;1.23;;;1.00;;
65238;SDS011;51827;51.186;6.926;2023-02-19T02:54:57;1.17;;;0.90;;
65238;SDS011;51827;51.186;6.926;2023-02-19T02:55:57;1.27;;;0.90;;
65238;SDS011;51827;51.186;6.926;2023-02-19T02:56:58;1.73;;;1.00;;
65238;SDS011;51827;51.186;6.926;2023-02-19T02:57:59;1.77;;;1.05;;
65238;SDS011;51827;51.186;6.926;2023-02-19T02:59:01;2.38;;;1.00;;
65238;SDS011;51827;51.186;6.926;2023-02-19T03:00:05;1.73;;;0.88;;
65238;SDS011;51827;51.186;6.926;2023-02-19T03:01:07;1.55;;;0.90;;
65238;SDS011;51827;51.186;6.926;2023-02-19T03:02:13;1.58;;;1.08;;
65238;SDS011;51827;51.186;6.926;2023-02-19T03:03:16;1.23;;;0.90;;
65238;SDS011;51827;51.186;6.926;2023-02-19T03:04:29;1.50;;;1.10;;
65238;SDS011;51827;51.186;6.926;2023-02-19T03:05:29;1.90;;;1.00;;
65238;SDS011;51827;51.186;6.926;2023-02-19T03:06:30;1.83;;;0.95;;
65238;SDS011;51827;51.186;6.926;2023-02-19T03:07:56;0.98;;;0.90;;
65238;SDS011;51827;51.186;6.926;2023-02-19T03:09:40;1.48;;;0.90;;
65238;SDS011;51827;51.186;6.926;2023-02-19T03:10:33;2.17;;;0.90;;
65238;SDS011;51827;51.186;6.926;2023-02-19T03:11:40;1.25;;;1.10;;
65238;SDS011;51827;51.186;6.926;2023-02-19T03:12:43;1.00;;;0.90;;
65238;SDS011;51827;51.186;6.926;2023-02-19T03:13:44;1.85;;;1.10;;
65238;SDS011;51827;51.186;6.926;2023-02-19T03:14:46;1.30;;;1.00;;
65238;SDS011;51827;51.186;6.926;2023-02-19T03:15:50;1.33;;;0.95;;
65238;SDS011;51827;51.186;6.926;2023-02-19T03:17:07;2.10;;;1.00;;
65238;SDS011;51827;51.186;6.926;2023-02-19T03:18:12;1.35;;;1.00;;
65238;SDS011;51827;51.186;6.926;2023-02-19T03:19:14;1.95;;;1.10;;
65238;SDS011;51827;51.186;6.926;2023-02-19T03:20:18;1.40;;;0.90;;
65238;SDS011;51827;51.186;6.926;2023-02-19T03:21:22;1.40;;;1.00;;
65238;SDS011;51827;51.186;6.926;2023-02-19T03:22:24;1.58;;;1.10;;
65238;SDS011;51827;51.186;6.926;2023-02-19T03:23:30;3.80;;;1.00;;
65238;SDS011;51827;51.186;6.926;2023-02-19T03:24:33;1.50;;;0.90;;
65238;SDS011;51827;51.186;6.926;2023-02-19T03:25:36;0.98;;;0.85;;
65238;SDS011;51827;51.186;6.926;2023-02-19T03:26:38;2.10;;;1.02;;
65238;SDS011;51827;51.186;6.926;2023-02-19T03:27:41;2.75;;;1.10;;
65238;SDS011;51827;51.186;6.926;2023-02-19T03:28:44;1.70;;;0.90;;
65238;SDS011;51827;51.186;6.926;2023-02-19T03:29:47;1.48;;;0.98;;
65238;SDS011;51827;51.186;6.926;2023-02-19T03:30:51;1.75;;;1.02;;
65238;SDS011;51827;51.186;6.926;2023-02-19T03:31:55;1.85;;;1.27;;
65238;SDS011;51827;51.186;6.926;2023-02-19T03:33:00;1.75;;;1.00;;
65238;SDS011;51827;51.186;6.926;2023-02-19T03:34:07;1.20;;;0.90;;
65238;SDS011;51827;51.186;6.926;2023-02-19T03:35:18;1.45;;;1.10;;
65238;SDS011;51827;51.186;6.926;2023-02-19T03:36:21;1.35;;;1.00;;
65238;SDS011;51827;51.186;6.926;2023-02-19T03:38:39;2.53;;;1.10;;
65238;SDS011;51827;51.186;6.926;2023-02-19T03:39:43;1.65;;;0.98;;
65238;SDS011;51827;51.186;6.926;2023-02-19T03:40:52;1.42;;;1.08;;
65238;SDS011;51827;51.186;6.926;2023-02-19T03:42:56;1.63;;;1.17;;
65238;SDS011;51827;51.186;6.926;2023-02-19T03:48:17;1.42;;;1.10;;
65238;SDS011;51827;51.186;6.926;2023-02-19T03:49:28;2.25;;;1.30;;
65238;SDS011;51827;51.186;6.926;2023-02-19T03:55:11;2.53;;;0.90;;
65238;SDS011;51827;51.186;6.926;2023-02-19T03:58:40;1.40;;;1.10;;
65238;SDS011;51827;51.186;6.926;2023-02-19T03:59:12;1.15;;;1.02;;
65238;SDS011;51827;51.186;6.926;2023-02-19T04:00:29;1.63;;;1.10;;
65238;SDS011;51827;51.186;6.926;2023-02-19T04:01:39;1.17;;;1.00;;
65238;SDS011;51827;51.186;6.926;2023-02-19T04:02:46;2.03;;;1.10;;
65238;SDS011;51827;51.186;6.926;2023-02-19T04:03:56;1.23;;;0.93;;
65238;SDS011;51827;51.186;6.926;2023-02-19T04:05:23;2.15;;;1.10;;
65238;SDS011;51827;51.186;6.926;2023-02-19T04:06:27;2.15;;;1.10;;
65238;SDS011;51827;51.186;6.926;2023-02-19T04:07:31;1.92;;;1.10;;
65238;SDS011;51827;51.186;6.926;2023-02-19T04:08:36;1.55;;;1.00;;
65238;SDS011;51827;51.186;6.926;2023-02-19T04:09:40;1.55;;;1.05;;
65238;SDS011;51827;51.186;6.926;2023-02-19T04:10:44;1.73;;;1.10;;
65238;SDS011;51827;51.186;6.926;2023-02-19T04:11:46;1.60;;;1.00;;
65238;SDS011;51827;51.186;6.926;2023-02-19T04:12:56;1.20;;;1.02;;
65238;SDS011;51827;51.186;6.926;2023-02-19T04:15:02;1.47;;;1.20;;
65238;SDS011;51827;51.186;6.926;2023-02-19T04:16:08;1.65;;;1.10;;
65238;SDS011;51827;51.186;6.926;2023-02-19T04:17:18;1.83;;;1.10;;
65238;SDS011;51827;51.186;6.926;2023-02-19T04:18:27;1.90;;;1.10;;
65238;SDS011;51827;51.186;6.926;2023-02-19T04:19:32;1.40;;;1.10;;
65238;SDS011;51827;51.186;6.926;2023-02-19T04:20:41;1.40;;;1.10;;
65238;SDS011;51827;51.186;6.926;2023-02-19T04:21:43;2.55;;;1.33;;
65238;SDS011;51827;51.186;6.926;2023-02-19T04:22:45;1.98;;;1.10;;
65238;SDS011;51827;51.186;6.926;2023-02-19T04:23:46;2.05;;;1.10;;
65238;SDS011;51827;51.186;6.926;2023-02-19T04:24:48;2.17;;;1.10;;
65238;SDS011;51827;51.186;6.926;2023-02-19T04:25:52;1.60;;;1.15;;
65238;SDS011;51827;51.186;6.926;2023-02-19T04:26:55;2.00;;;1.02;;
65238;SDS011;51827;51.186;6.926;2023-02-19T04:27:56;1.30;;;1.10;;
65238;SDS011;51827;51.186;6.926;2023-02-19T04:28:57;1.52;;;0.98;;
65238;SDS011;51827;51.186;6.926;2023-02-19T04:29:57;1.70;;;1.20;;
65238;SDS011;51827;51.186;6.926;2023-02-19T04:30:57;1.80;;;1.17;;
65238;SDS011;51827;51.186;6.926;2023-02-19T04:31:57;1.20;;;1.03;;
65238;SDS011;51827;51.186;6.926;2023-02-19T04:32:58;1.23;;;1.10;;
65238;SDS011;51827;51.186;6.926;2023-02-19T04:33:58;2.17;;;1.17;;
65238;SDS011;51827;51.186;6.926;2023-02-19T04:34:58;2.00;;;1.10;;
65238;SDS011;51827;51.186;6.926;2023-02-19T04:35:58;1.50;;;1.10;;
65238;SDS011;51827;51.186;6.926;2023-02-19T04:36:59;1.77;;;1.23;;
65238;SDS011;51827;51.186;6.926;2023-02-19T04:37:59;1.67;;;1.10;;
65238;SDS011;51827;51.186;6.926;2023-02-19T04:38:59;1.83;;;1.20;;
65238;SDS011;51827;51.186;6.926;2023-02-19T04:39:59;1.87;;;1.20;;
65238;SDS011;51827;51.186;6.926;2023-02-19T04:41:00;1.50;;;1.10;;
65238;SDS011;51827;51.186;6.926;2023-02-19T04:42:00;1.80;;;1.20;;
65238;SDS011;51827;51.186;6.926;2023-02-19T04:43:00;1.70;;;1.30;;
65238;SDS011;51827;51.186;6.926;2023-02-19T04:44:01;2.37;;;1.20;;
65238;SDS011;51827;51.186;6.926;2023-02-19T04:45:01;1.50;;;1.20;;
65238;SDS011;51827;51.186;6.926;2023-02-19T04:46:01;1.60;;;1.20;;
65238;SDS011;51827;51.186;6.926;2023-02-19T04:47:01;1.40;;;1.10;;
65238;SDS011;51827;51.186;6.926;2023-02-19T04:48:02;2.70;;;1.20;;
65238;SDS011;51827;51.186;6.926;2023-02-19T04:49:03;1.88;;;1.23;;
65238;SDS011;51827;51.186;6.926;2023-02-19T04:50:03;1.47;;;1.00;;
65238;SDS011;51827;51.186;6.926;2023-02-19T04:51:04;3.17;;;1.20;;
65238;SDS011;51827;51.186;6.926;2023-02-19T04:52:05;2.13;;;1.30;;
65238;SDS011;51827;51.186;6.926;2023-02-19T04:53:06;1.97;;;1.33;;
65238;SDS011;51827;51.186;6.926;2023-02-19T04:54:06;1.53;;;1.20;;
65238;SDS011;51827;51.186;6.926;2023-02-19T04:55:07;1.88;;;1.30;;
65238;SDS011;51827;51.186;6.926;2023-02-19T04:56:09;2.33;;;1.25;;
65238;SDS011;51827;51.186;6.926;2023-02-19T04:57:11;3.08;;;1.65;;
65238;SDS011;51827;51.186;6.926;2023-02-19T04:58:11;2.57;;;1.43;;
65238;SDS011;51827;51.186;6.926;2023-02-19T04:59:12;1.43;;;1.17;;
65238;SDS011;51827;51.186;6.926;2023-02-19T05:00:12;2.03;;;1.30;;
65238;SDS011;51827;51.186;6.926;2023-02-19T05:02:14;1.83;;;1.20;;
65238;SDS011;51827;51.186;6.926;2023-02-19T05:03:14;2.27;;;1.37;;
65238;SDS011;51827;51.186;6.926;2023-02-19T05:04:14;1.77;;;1.20;;
65238;SDS011;51827;51.186;6.926;2023-02-19T05:05:14;1.83;;;1.20;;
65238;SDS011;51827;51.186;6.926;2023-02-19T05:06:15;2.13;;;1.20;;
65238;SDS011;51827;51.186;6.926;2023-02-19T05:07:15;1.70;;;1.30;;
65238;SDS011;51827;51.186;6.926;2023-02-19T05:08:16;2.70;;;1.30;;
65238;SDS011;51827;51.186;6.926;2023-02-19T05:09:16;1.83;;;1.30;;
65238;SDS011;51827;51.186;6.926;2023-02-19T05:10:19;1.67;;;1.20;;
65238;SDS011;51827;51.186;6.926;2023-02-19T05:11:20;8.43;;;1.50;;
65238;SDS011;51827;51.186;6.926;2023-02-19T05:12:20;2.07;;;1.33;;
65238;SDS011;51827;51.186;6.926;2023-02-19T05:13:20;2.80;;;1.30;;
65238;SDS011;51827;51.186;6.926;2023-02-19T05:14:20;1.77;;;1.30;;
65238;SDS011;51827;51.186;6.926;2023-02-19T05:15:21;2.33;;;1.30;;
65238;SDS011;51827;51.186;6.926;2023-02-19T05:16:21;1.90;;;1.37;;
65238;SDS011;51827;51.186;6.926;2023-02-19T05:17:21;2.38;;;1.27;;
65238;SDS011;51827;51.186;6.926;2023-02-19T05:18:22;1.87;;;1.23;;
65238;SDS011;51827;51.186;6.926;2023-02-19T05:19:22;2.17;;;1.47;;
65238;SDS011;51827;51.186;6.926;2023-02-19T05:20:22;3.87;;;1.40;;
65238;SDS011;51827;51.186;6.926;2023-02-19T05:21:22;2.60;;;1.20;;
65238;SDS011;51827;51.186;6.926;2023-02-19T05:22:23;2.80;;;1.40;;
65238;SDS011;51827;51.186;6.926;2023-02-19T05:23:23;1.90;;;1.27;;
65238;SDS011;51827;51.186;6.926;2023-02-19T05:24:24;2.70;;;1.40;;
65238;SDS011;51827;51.186;6.926;2023-02-19T05:25:24;2.60;;;1.20;;
65238;SDS011;51827;51.186;6.926;2023-02-19T05:26:24;1.77;;;1.27;;
65238;SDS011;51827;51.186;6.926;2023-02-19T05:27:25;2.00;;;1.30;;
65238;SDS011;51827;51.186;6.926;2023-02-19T05:28:25;3.07;;;1.33;;
65238;SDS011;51827;51.186;6.926;2023-02-19T05:29:25;1.70;;;1.37;;
65238;SDS011;51827;51.186;6.926;2023-02-19T05:30:25;2.27;;;1.47;;
65238;SDS011;51827;51.186;6.926;2023-02-19T05:31:26;1.93;;;1.30;;
65238;SDS011;51827;51.186;6.926;2023-02-19T05:32:26;1.90;;;1.30;;
65238;SDS011;51827;51.186;6.926;2023-02-19T05:33:26;2.03;;;1.27;;
65238;SDS011;51827;51.186;6.926;2023-02-19T05:34:26;2.23;;;1.40;;
65238;SDS011;51827;51.186;6.926;2023-02-19T05:35:27;2.87;;;1.30;;
65238;SDS011;51827;51.186;6.926;2023-02-19T05:36:27;2.07;;;1.27;;
65238;SDS011;51827;51.186;6.926;2023-02-19T05:37:27;2.57;;;1.50;;
65238;SDS011;51827;51.186;6.926;2023-02-19T05:38:27;1.77;;;1.20;;
65238;SDS011;51827;51.186;6.926;2023-02-19T05:39:28;2.13;;;1.20;;
65238;SDS011;51827;51.186;6.926;2023-02-19T05:40:28;1.87;;;1.30;;
65238;SDS011;51827;51.186;6.926;2023-02-19T05:41:28;1.77;;;1.20;;
65238;SDS011;51827;51.186;6.926;2023-02-19T05:42:29;2.30;;;1.20;;
65238;SDS011;51827;51.186;6.926;2023-02-19T05:43:29;1.63;;;1.27;;
65238;SDS011;51827;51.186;6.926;2023-02-19T05:44:29;2.13;;;1.47;;
65238;SDS011;51827;51.186;6.926;2023-02-19T05:45:29;2.17;;;1.33;;
65238;SDS011;51827;51.186;6.926;2023-02-19T05:46:30;2.10;;;1.20;;
65238;SDS011;51827;51.186;6.926;2023-02-19T05:47:30;1.80;;;1.40;;
65238;SDS011;51827;51.186;6.926;2023-02-19T05:48:30;2.93;;;1.30;;
65238;SDS011;51827;51.186;6.926;2023-02-19T05:49:31;1.92;;;1.52;;
65238;SDS011;51827;51.186;6.926;2023-02-19T05:50:32;2.00;;;1.23;;
65238;SDS011;51827;51.186;6.926;2023-02-19T05:51:35;1.63;;;1.25;;
65238;SDS011;51827;51.186;6.926;2023-02-19T05:52:35;3.13;;;1.30;;
65238;SDS011;51827;51.186;6.926;2023-02-19T05:53:36;1.77;;;1.30;;
65238;SDS011;51827;51.186;6.926;2023-02-19T05:54:36;2.08;;;1.40;;
65238;SDS011;51827;51.186;6.926;2023-02-19T05:55:36;1.77;;;1.30;;
65238;SDS011;51827;51.186;6.926;2023-02-19T05:56:38;4.23;;;1.10;;
65238;SDS011;51827;51.186;6.926;2023-02-19T05:57:40;1.92;;;1.17;;
65238;SDS011;51827;51.186;6.926;2023-02-19T05:58:41;1.85;;;1.38;;
65238;SDS011;51827;51.186;6.926;2023-02-19T05:59:41;1.73;;;1.10;;
65238;SDS011;51827;51.186;6.926;2023-02-19T06:00:41;1.70;;;1.20;;
65238;SDS011;51827;51.186;6.926;2023-02-19T06:01:42;2.17;;;1.40;;
65238;SDS011;51827;51.186;6.926;2023-02-19T06:02:42;1.63;;;1.33;;
65238;SDS011;51827;51.186;6.926;2023-02-19T06:03:43;2.30;;;1.30;;
65238;SDS011;51827;51.186;6.926;2023-02-19T06:04:43;2.00;;;1.40;;
65238;SDS011;51827;51.186;6.926;2023-02-19T06:05:43;2.00;;;1.30;;
65238;SDS011;51827;51.186;6.926;2023-02-19T06:06:43;1.77;;;1.37;;
65238;SDS011;51827;51.186;6.926;2023-02-19T06:07:44;1.67;;;1.20;;
65238;SDS011;51827;51.186;6.926;2023-02-19T06:08:44;2.23;;;1.17;;
65238;SDS011;51827;51.186;6.926;2023-02-19T06:09:49;1.90;;;1.30;;
65238;SDS011;51827;51.186;6.926;2023-02-19T06:10:49;3.53;;;1.40;;
65238;SDS011;51827;51.186;6.926;2023-02-19T06:11:50;1.73;;;1.30;;
65238;SDS011;51827;51.186;6.926;2023-02-19T06:12:53;1.77;;;1.20;;
65238;SDS011;51827;51.186;6.926;2023-02-19T06:13:53;1.83;;;1.10;;
65238;SDS011;51827;51.186;6.926;2023-02-19T06:14:54;2.10;;;1.40;;
65238;SDS011;51827;51.186;6.926;2023-02-19T06:15:54;1.40;;;1.10;;
65238;SDS011;51827;51.186;6.926;2023-02-19T06:16:54;1.97;;;1.40;;
65238;SDS011;51827;51.186;6.926;2023-02-19T06:17:54;2.23;;;1.40;;
65238;SDS011;51827;51.186;6.926;2023-02-19T06:18:55;2.43;;;1.60;;
65238;SDS011;51827;51.186;6.926;2023-02-19T06:19:55;3.83;;;1.30;;
65238;SDS011;51827;51.186;6.926;2023-02-19T06:21:01;2.60;;;1.37;;
65238;SDS011;51827;51.186;6.926;2023-02-19T06:22:03;1.35;;;1.20;;
65238;SDS011;51827;51.186;6.926;2023-02-19T06:23:03;2.80;;;1.50;;
65238;SDS011;51827;51.186;6.926;2023-02-19T06:24:04;2.57;;;1.50;;
65238;SDS011;51827;51.186;6.926;2023-02-19T06:25:06;2.80;;;1.33;;
65238;SDS011;51827;51.186;6.926;2023-02-19T06:26:16;1.70;;;1.23;;
65238;SDS011;51827;51.186;6.926;2023-02-19T06:27:18;3.95;;;1.38;;
65238;SDS011;51827;51.186;6.926;2023-02-19T06:28:19;1.97;;;1.30;;
65238;SDS011;51827;51.186;6.926;2023-02-19T06:29:19;1.90;;;1.40;;
65238;SDS011;51827;51.186;6.926;2023-02-19T06:30:19;1.63;;;1.30;;
65238;SDS011;51827;51.186;6.926;2023-02-19T06:31:20;1.98;;;1.40;;
65238;SDS011;51827;51.186;6.926;2023-02-19T06:32:21;1.95;;;1.42;;
65238;SDS011;51827;51.186;6.926;2023-02-19T06:33:21;4.20;;;1.27;;
65238;SDS011;51827;51.186;6.926;2023-02-19T06:34:22;3.07;;;1.40;;
65238;SDS011;51827;51.186;6.926;2023-02-19T06:35:22;1.87;;;1.27;;
65238;SDS011;51827;51.186;6.926;2023-02-19T06:36:22;1.77;;;1.20;;
65238;SDS011;51827;51.186;6.926;2023-02-19T06:37:22;1.93;;;1.40;;
65238;SDS011;51827;51.186;6.926;2023-02-19T06:38:23;1.73;;;1.30;;
65238;SDS011;51827;51.186;6.926;2023-02-19T06:39:23;3.13;;;1.30;;
65238;SDS011;51827;51.186;6.926;2023-02-19T06:40:24;2.15;;;1.30;;
65238;SDS011;51827;51.186;6.926;2023-02-19T06:41:24;2.00;;;1.27;;
65238;SDS011;51827;51.186;6.926;2023-02-19T06:42:24;1.97;;;1.40;;
65238;SDS011;51827;51.186;6.926;2023-02-19T06:43:25;2.33;;;1.33;;
65238;SDS011;51827;51.186;6.926;2023-02-19T06:44:25;3.50;;;1.43;;
65238;SDS011;51827;51.186;6.926;2023-02-19T06:45:25;2.40;;;1.40;;
65238;SDS011;51827;51.186;6.926;2023-02-19T06:46:25;2.47;;;1.30;;
65238;SDS011;51827;51.186;6.926;2023-02-19T06:47:29;2.27;;;1.40;;
65238;SDS011;51827;51.186;6.926;2023-02-19T06:48:31;3.70;;;1.58;;